^^
Saratoga-Weather Station Historical Data
Daily Summary for March 18, 2021 Units:  English    Metric   Both
Daily Weekly Monthly Yearly Custom
  High: Low: Average:
Temperature: 91 °F 63 °F 77.7 °F
Dew Point: 71.4 °F 59.4 °F 64.6 °F
Humidity: 90% 45% 66%
Wind Speed: 8.1mph 0mph 1.1mph
Wind Gust: 11mph - -
Wind- - SSW
Pressure: 29.9 in 29.8 in -
Precipitation: 0 in    
Historical Graphs
 
 
Tabular Data for March 18, 2021
Time Temperature Dew Point Pressure Wind Wind Speed Wind Gust Humidity Rainfall Rate (Hourly) solar
00:02 70.2 °F 61.2 °F 29.8 in Calm     73% 0 in 0 W/m2
00:07 70 °F 61 °F 29.8 in Calm     73% 0 in 0 W/m2
00:12 69.6 °F 61 °F 29.8 in Calm     74% 0 in 0 W/m2
00:17 69.4 °F 60.8 °F 29.8 in Calm     74% 0 in 0 W/m2
00:22 69.3 °F 61 °F 29.8 in Calm     75% 0 in 0 W/m2
00:27 69.1 °F 61.2 °F 29.8 in Calm     76% 0 in 0 W/m2
00:32 68.9 °F 61.3 °F 29.8 in Calm     77% 0 in 0 W/m2
00:37 68.7 °F 61.5 °F 29.8 in Calm     78% 0 in 0 W/m2
00:42 68.5 °F 61.3 °F 29.8 in Calm     78% 0 in 0 W/m2
00:47 68.5 °F 61.3 °F 29.8 in Calm     78% 0 in 0 W/m2
00:52 68.4 °F 61.5 °F 29.8 in Calm     79% 0 in 0 W/m2
00:57 68.2 °F 61.3 °F 29.8 in Calm     79% 0 in 0 W/m2
01:02 68 °F 61.2 °F 29.8 in Calm     79% 0 in 0 W/m2
01:07 67.6 °F 61 °F 29.8 in Calm     79% 0 in 0 W/m2
01:12 67.6 °F 61.2 °F 29.8 in Calm     80% 0 in 0 W/m2
01:17 67.6 °F 61.2 °F 29.8 in Calm     80% 0 in 0 W/m2
01:22 67.5 °F 61.3 °F 29.8 in Calm     81% 0 in 0 W/m2
01:27 67.3 °F 61.2 °F 29.8 in Calm     81% 0 in 0 W/m2
01:32 67.3 °F 61.2 °F 29.8 in Calm     81% 0 in 0 W/m2
01:37 66.9 °F 61 °F 29.8 in Calm     81% 0 in 0 W/m2
01:42 66.7 °F 61 °F 29.8 in Calm     82% 0 in 0 W/m2
01:47 66.7 °F 61 °F 29.8 in Calm     82% 0 in 0 W/m2
01:53 66.6 °F 61.2 °F 29.8 in Calm     83% 0 in 0 W/m2
01:58 66.6 °F 61.2 °F 29.8 in Calm     83% 0 in 0 W/m2
02:03 66.4 °F 61 °F 29.8 in Calm     83% 0 in 0 W/m2
02:08 66.4 °F 61 °F 29.8 in Calm     83% 0 in 0 W/m2
02:13 66.2 °F 61.2 °F 29.8 in Calm     84% 0 in 0 W/m2
02:18 66.2 °F 61.2 °F 29.8 in Calm     84% 0 in 0 W/m2
02:23 66 °F 61 °F 29.8 in Calm   1 mph 84% 0 in 0 W/m2
02:28 66 °F 61 °F 29.8 in Calm     84% 0 in 0 W/m2
02:33 66 °F 61 °F 29.8 in Calm   1 mph 84% 0 in 0 W/m2
02:38 65.8 °F 60.8 °F 29.8 in Calm     84% 0 in 0 W/m2
02:43 65.8 °F 60.8 °F 29.8 in Calm     84% 0 in 0 W/m2
02:48 65.7 °F 60.6 °F 29.8 in Calm     84% 0 in 0 W/m2
02:53 65.7 °F 60.6 °F 29.8 in Calm     84% 0 in 0 W/m2
02:58 65.7 °F 61 °F 29.8 in Calm     85% 0 in 0 W/m2
03:03 65.7 °F 61 °F 29.8 in Calm     85% 0 in 0 W/m2
03:08 65.5 °F 60.8 °F 29.8 in Calm     85% 0 in 0 W/m2
03:13 65.5 °F 61.2 °F 29.8 in Calm     86% 0 in 0 W/m2
03:18 65.5 °F 61.2 °F 29.8 in Calm     86% 0 in 0 W/m2
03:23 65.3 °F 60.6 °F 29.8 in Calm     85% 0 in 0 W/m2
03:28 65.1 °F 60.8 °F 29.8 in Calm     86% 0 in 0 W/m2
03:33 65.1 °F 60.8 °F 29.8 in Calm     86% 0 in 0 W/m2
03:38 65.1 °F 60.8 °F 29.8 in Calm   1 mph 86% 0 in 0 W/m2
03:43 64.9 °F 60.6 °F 29.8 in Calm     86% 0 in 0 W/m2
03:48 64.9 °F 60.6 °F 29.8 in Calm     86% 0 in 0 W/m2
03:53 64.8 °F 60.1 °F 29.8 in Calm     85% 0 in 0 W/m2
03:58 64.8 °F 60.1 °F 29.8 in Calm     85% 0 in 0 W/m2
04:03 64.6 °F 59.9 °F 29.8 in Calm     85% 0 in 0 W/m2
04:08 64.4 °F 59.7 °F 29.8 in Calm     85% 0 in 0 W/m2
04:13 64.2 °F 59.5 °F 29.8 in Calm     85% 0 in 0 W/m2
04:18 64.2 °F 59.5 °F 29.8 in Calm     85% 0 in 0 W/m2
04:23 64.2 °F 59.4 °F 29.8 in Calm     84% 0 in 0 W/m2
04:28 64.2 °F 59.4 °F 29.8 in Calm     84% 0 in 0 W/m2
04:33 64.2 °F 59.5 °F 29.8 in Calm     85% 0 in 0 W/m2
04:38 64.2 °F 59.9 °F 29.8 in Calm     86% 0 in 0 W/m2
04:43 64.2 °F 59.9 °F 29.8 in Calm     86% 0 in 0 W/m2
04:48 64 °F 59.7 °F 29.8 in Calm     86% 0 in 0 W/m2
04:53 64 °F 60.1 °F 29.8 in Calm     87% 0 in 0 W/m2
04:58 64 °F 60.1 °F 29.8 in Calm     87% 0 in 0 W/m2
05:03 63.9 °F 59.9 °F 29.8 in Calm     87% 0 in 0 W/m2
05:08 63.7 °F 59.7 °F 29.8 in Calm     87% 0 in 0 W/m2
05:13 63.7 °F 59.7 °F 29.8 in Calm     87% 0 in 0 W/m2
05:18 63.5 °F 59.5 °F 29.8 in Calm     87% 0 in 0 W/m2
05:23 63.3 °F 59.7 °F 29.8 in Calm     88% 0 in 0 W/m2
05:28 63.1 °F 59.5 °F 29.8 in Calm     88% 0 in 0 W/m2
05:33 63.1 °F 59.5 °F 29.8 in Calm     88% 0 in 0 W/m2
05:38 63.1 °F 59.9 °F 29.8 in Calm     89% 0 in 5 W/m2
05:43 63 °F 59.7 °F 29.8 in Calm     89% 0 in 9 W/m2
05:48 63 °F 59.7 °F 29.8 in Calm     89% 0 in 11 W/m2
05:53 63 °F 59.7 °F 29.8 in Calm     89% 0 in 11 W/m2
05:58 63 °F 59.7 °F 29.8 in Calm     89% 0 in 12 W/m2
06:03 63 °F 59.7 °F 29.8 in Calm     89% 0 in 16 W/m2
06:08 63 °F 59.9 °F 29.8 in Calm     90% 0 in 19 W/m2
06:13 63.1 °F 60.1 °F 29.8 in Calm     90% 0 in 26 W/m2
06:18 63.1 °F 60.1 °F 29.8 in Calm     90% 0 in 40 W/m2
06:23 63.1 °F 60.1 °F 29.8 in Calm     90% 0 in 47 W/m2
06:28 63.7 °F 60.6 °F 29.8 in Calm     90% 0 in 65 W/m2
06:33 64 °F 61 °F 29.8 in Calm   2 mph 90% 0 in 70 W/m2
06:38 64.6 °F 61.3 °F 29.8 in Calm     89% 0 in 69 W/m2
06:43 64.9 °F 61.3 °F 29.8 in Calm   2 mph 88% 0 in 69 W/m2
06:48 65.5 °F 61.5 °F 29.8 in Calm     87% 0 in 72 W/m2
06:53 65.8 °F 61.5 °F 29.8 in WSW 0.9 mph 1 mph 86% 0 in 72 W/m2
06:58 66.4 °F 62.1 °F 29.8 in SSE 2 mph 2 mph 86% 0 in 77 W/m2
07:03 66.6 °F 61.5 °F 29.8 in SE 0.9 mph 1 mph 84% 0 in 88 W/m2
07:08 66.9 °F 61.5 °F 29.8 in ENE 0.9 mph 2 mph 83% 0 in 77 W/m2
07:13 67.1 °F 61.7 °F 29.8 in Calm   2 mph 83% 0 in 70 W/m2
07:18 67.3 °F 61.9 °F 29.8 in East 0.9 mph 2 mph 83% 0 in 83 W/m2
07:23 67.5 °F 61.7 °F 29.8 in Calm     82% 0 in 70 W/m2
07:28 67.6 °F 61.9 °F 29.8 in Calm   1 mph 82% 0 in 63 W/m2
07:33 67.8 °F 61.7 °F 29.8 in Calm   2 mph 81% 0 in 65 W/m2
07:38 68 °F 61.9 °F 29.8 in Calm   2 mph 81% 0 in 135 W/m2
07:43 68.2 °F 61.7 °F 29.8 in NE 2 mph 2 mph 80% 0 in 204 W/m2
07:48 68.5 °F 62.1 °F 29.8 in Calm     80% 0 in 204 W/m2
07:54 69.4 °F 62.6 °F 29.8 in ENE 2 mph 3 mph 79% 0 in 199 W/m2
07:59 70.2 °F 62.6 °F 29.8 in ENE 0.9 mph 2 mph 77% 0 in 207 W/m2
08:04 70.9 °F 63 °F 29.8 in East 0.9 mph 3 mph 76% 0 in 239 W/m2
08:09 71.2 °F 63.3 °F 29.8 in Calm   2 mph 76% 0 in 251 W/m2
08:14 71.8 °F 63 °F 29.8 in ENE 2.9 mph 3 mph 74% 0 in 216 W/m2
08:19 72.1 °F 63.3 °F 29.8 in ENE 0.9 mph 2 mph 74% 0 in 127 W/m2
08:24 72.7 °F 63.5 °F 29.8 in NNE 0.9 mph 3 mph 73% 0 in 83 W/m2
08:29 73 °F 63.9 °F 29.8 in East 0.9 mph 3 mph 73% 0 in 81 W/m2
08:34 73.2 °F 63.7 °F 29.8 in ENE 0.9 mph 5 mph 72% 0 in 83 W/m2
08:39 73.8 °F 64.2 °F 29.8 in NE 2.9 mph 6 mph 72% 0 in 83 W/m2
08:44 73.8 °F 64.6 °F 29.8 in NNE 2 mph 3 mph 73% 0 in 83 W/m2
08:49 74.1 °F 64.6 °F 29.8 in NE 2 mph 6 mph 72% 0 in 84 W/m2
08:54 74.5 °F 64.9 °F 29.8 in NE 2 mph 4 mph 72% 0 in 88 W/m2
08:59 74.7 °F 65.1 °F 29.8 in NE 2 mph 2 mph 72% 0 in 88 W/m2
09:04 75 °F 65.3 °F 29.8 in ENE 0.9 mph 1 mph 72% 0 in 91 W/m2
09:09 75.4 °F 65.3 °F 29.8 in Calm   3 mph 71% 0 in 93 W/m2
09:14 75.7 °F 64.8 °F 29.8 in NE 2 mph 5 mph 69% 0 in 127 W/m2
09:19 75.7 °F 64.8 °F 29.8 in ENE 2 mph 3 mph 69% 0 in 276 W/m2
09:24 76.3 °F 65.3 °F 29.8 in NE 0.9 mph 3 mph 69% 0 in 441 W/m2
09:29 76.6 °F 65.3 °F 29.8 in NE 2.9 mph 5 mph 68% 0 in 462 W/m2
09:34 76.8 °F 65.5 °F 29.8 in NE 4 mph 4 mph 68% 0 in 480 W/m2
09:39 77.4 °F 65.5 °F 29.8 in East 2 mph 5 mph 67% 0 in 496 W/m2
09:44 77.5 °F 65.7 °F 29.8 in East 2.9 mph 4 mph 67% 0 in 508 W/m2
09:49 77.7 °F 65.5 °F 29.8 in East 0.9 mph 3 mph 66% 0 in 522 W/m2
09:54 78.1 °F 65.8 °F 29.8 in ESE 2 mph 4 mph 66% 0 in 534 W/m2
09:59 78.6 °F 65.8 °F 29.8 in ESE 2.9 mph 7 mph 65% 0 in 543 W/m2
10:04 79.2 °F 66.4 °F 29.8 in ENE 0.9 mph 3 mph 65% 0 in 559 W/m2
10:09 79.5 °F 66.2 °F 29.8 in East 2 mph 7 mph 64% 0 in 499 W/m2
10:14 80.2 °F 66.6 °F 29.8 in NW 2 mph 3 mph 63% 0 in 178 W/m2
10:19 80.8 °F 66.9 °F 29.8 in Calm   4 mph 63% 0 in 763 W/m2
10:24 81.3 °F 66.6 °F 29.8 in NE 2.9 mph 3 mph 61% 0 in 628 W/m2
10:29 81.7 °F 67.5 °F 29.8 in WNW 2 mph 2 mph 62% 0 in 619 W/m2
10:34 81.3 °F 67.1 °F 29.8 in Calm   4 mph 62% 0 in 846 W/m2
10:39 81.3 °F 66.6 °F 29.8 in South 2 mph 5 mph 61% 0 in 499 W/m2
10:44 81.1 °F 66.4 °F 29.8 in ESE 6 mph 6 mph 61% 0 in 680 W/m2
10:49 81.3 °F 65.7 °F 29.8 in West 2 mph 3 mph 59% 0 in 677 W/m2
10:54 81.5 °F 66.2 °F 29.8 in Calm   1 mph 60% 0 in 677 W/m2
10:59 82.6 °F 67.3 °F 29.8 in ESE 0.9 mph 3 mph 60% 0 in 684 W/m2
11:04 83.7 °F 67.3 °F 29.8 in Calm   2 mph 58% 0 in 707 W/m2
11:09 84.4 °F 68 °F 29.8 in NNW 0.9 mph 3 mph 58% 0 in 708 W/m2
11:14 84.7 °F 68.4 °F 29.8 in SW 0.9 mph 2 mph 58% 0 in 712 W/m2
11:19 84.7 °F 67.8 °F 29.8 in ENE 2 mph 2 mph 57% 0 in 728 W/m2
11:24 84.6 °F 67.6 °F 29.8 in West 2.9 mph 7 mph 57% 0 in 744 W/m2
11:29 84.4 °F 68 °F 29.8 in NNW 2 mph 2 mph 58% 0 in 738 W/m2
11:34 84.6 °F 68.2 °F 29.8 in NE 0.9 mph 3 mph 58% 0 in 752 W/m2
11:39 84.6 °F 67.6 °F 29.8 in East 0.9 mph 3 mph 57% 0 in 765 W/m2
11:44 84.6 °F 67.6 °F 29.8 in Calm   4 mph 57% 0 in 772 W/m2
11:49 84.6 °F 67.1 °F 29.8 in WNW 6 mph 7 mph 56% 0 in 784 W/m2
11:54 84.7 °F 66.7 °F 29.8 in WNW 2 mph 4 mph 55% 0 in 791 W/m2
11:59 85.1 °F 65.5 °F 29.9 in WNW 2 mph 3 mph 52% 0 in 802 W/m2
12:04 85.5 °F 65.8 °F 29.9 in NNE 2.9 mph 5 mph 52% 0 in 805 W/m2
12:09 85.5 °F 65.8 °F 29.9 in East 0.9 mph 5 mph 52% 0 in 812 W/m2
12:14 85.5 °F 65.3 °F 29.9 in North 4 mph 4 mph 51% 0 in 807 W/m2
12:19 85.6 °F 64.9 °F 29.9 in NNW 2.9 mph 7 mph 50% 0 in 831 W/m2
12:24 85.5 °F 63.5 °F 29.9 in NNW 0.9 mph 5 mph 48% 0 in 826 W/m2
12:29 85.5 °F 64.8 °F 29.9 in WSW 2.9 mph 9 mph 50% 0 in 842 W/m2
12:34 85.5 °F 64.8 °F 29.8 in WNW 2.9 mph 8 mph 50% 0 in 849 W/m2
12:39 85.6 °F 65.5 °F 29.8 in Calm   7 mph 51% 0 in 842 W/m2
12:44 86 °F 64.6 °F 29.8 in West 8.1 mph 10 mph 49% 0 in 847 W/m2
12:49 86 °F 65.1 °F 29.8 in NW 4.9 mph 7 mph 50% 0 in 846 W/m2
12:54 86 °F 65.8 °F 29.8 in WNW 2 mph 5 mph 51% 0 in 847 W/m2
12:59 86.2 °F 65.8 °F 29.8 in SW 4 mph 4 mph 51% 0 in 853 W/m2
13:04 86.5 °F 66.2 °F 29.8 in NW 4.9 mph 5 mph 51% 0 in 870 W/m2
13:09 86.7 °F 65.3 °F 29.8 in NNW 8.1 mph 9 mph 49% 0 in 870 W/m2
13:14 86.5 °F 65.1 °F 29.8 in SSW 4 mph 6 mph 49% 0 in 872 W/m2
13:19 86.2 °F 66.6 °F 29.8 in NW 2.9 mph 5 mph 52% 0 in 889 W/m2
13:24 86.2 °F 66.6 °F 29.8 in Calm   3 mph 52% 0 in 872 W/m2
13:29 86.4 °F 66 °F 29.8 in West 0.9 mph 4 mph 51% 0 in 872 W/m2
13:34 86.5 °F 65.1 °F 29.8 in WNW 2.9 mph 8 mph 49% 0 in 874 W/m2
13:39 86.4 °F 65.5 °F 29.8 in WNW 2 mph 4 mph 50% 0 in 870 W/m2
13:44 86.9 °F 65.5 °F 29.8 in WNW 2.9 mph 8 mph 49% 0 in 847 W/m2
13:49 87.1 °F 65.7 °F 29.8 in NE 4 mph 4 mph 49% 0 in 847 W/m2
13:54 87.1 °F 66.2 °F 29.8 in West 4 mph 10 mph 50% 0 in 870 W/m2
13:59 87.1 °F 66.7 °F 29.8 in WSW 4 mph 8 mph 51% 0 in 888 W/m2
14:04 86.7 °F 65.8 °F 29.8 in West 4 mph 6 mph 50% 0 in 923 W/m2
14:09 86.7 °F 65.3 °F 29.8 in West 6 mph 9 mph 49% 0 in 942 W/m2
14:14 87.1 °F 66.2 °F 29.8 in West 0.9 mph 3 mph 50% 0 in 932 W/m2
14:19 87.6 °F 66.7 °F 29.8 in WSW 0.9 mph 9 mph 50% 0 in 902 W/m2
14:24 87.3 °F 66.4 °F 29.8 in West 6 mph 9 mph 50% 0 in 904 W/m2
14:29 87.1 °F 66.2 °F 29.8 in WNW 8.1 mph 9 mph 50% 0 in 886 W/m2
14:34 87.1 °F 65.7 °F 29.8 in West 0.9 mph 6 mph 49% 0 in 868 W/m2
14:39 87.3 °F 66.4 °F 29.8 in SSE 0.9 mph 3 mph 50% 0 in 870 W/m2
14:44 88 °F 65.8 °F 29.8 in NW 2 mph 6 mph 48% 0 in 886 W/m2
14:49 88.9 °F 66.6 °F 29.8 in NNW 2 mph 3 mph 48% 0 in 904 W/m2
14:54 88.5 °F 65.7 °F 29.8 in WSW 2.9 mph 7 mph 47% 0 in 896 W/m2
14:59 88.3 °F 64.2 °F 29.8 in North 0.9 mph 3 mph 45% 0 in 858 W/m2
15:04 88.2 °F 65.3 °F 29.8 in WNW 0.9 mph 2 mph 47% 0 in 847 W/m2
15:09 88.2 °F 64.2 °F 29.8 in WNW 2 mph 11 mph 45% 0 in 849 W/m2
15:14 88.2 °F 66 °F 29.8 in SSW 2 mph 3 mph 48% 0 in 847 W/m2
15:19 88.3 °F 65.5 °F 29.8 in Calm   11 mph 47% 0 in 837 W/m2
15:24 88.5 °F 66.4 °F 29.8 in ESE 6 mph 7 mph 48% 0 in 838 W/m2
15:29 89.1 °F 66.7 °F 29.8 in NE 2.9 mph 3 mph 48% 0 in 837 W/m2
15:34 89.4 °F 65.8 °F 29.8 in West 2 mph 6 mph 46% 0 in 830 W/m2
15:39 89.1 °F 65.7 °F 29.8 in West 2.9 mph 5 mph 46% 0 in 823 W/m2
15:44 88.7 °F 65.3 °F 29.8 in SSW 2.9 mph 6 mph 46% 0 in 805 W/m2
15:49 88.9 °F 67.3 °F 29.8 in North 0.9 mph 3 mph 49% 0 in 807 W/m2
15:55 89.1 °F 65.7 °F 29.8 in West 2.9 mph 7 mph 46% 0 in 169 W/m2
16:00 88.5 °F 66.4 °F 29.8 in WNW 0.9 mph 2 mph 48% 0 in 826 W/m2
16:05 88.5 °F 66.4 °F 29.8 in West 2.9 mph 7 mph 48% 0 in 258 W/m2
16:10 88.3 °F 66.2 °F 29.8 in WNW 0.9 mph 3 mph 48% 0 in 229 W/m2
16:15 88.3 °F 66.2 °F 29.8 in ENE 2.9 mph 6 mph 48% 0 in 742 W/m2
16:20 89.1 °F 66.7 °F 29.8 in ESE 2.9 mph 3 mph 48% 0 in 663 W/m2
16:25 89.4 °F 65.8 °F 29.8 in SE 0.9 mph 4 mph 46% 0 in 543 W/m2
16:30 89.4 °F 68.4 °F 29.8 in Calm   2 mph 50% 0 in 548 W/m2
16:35 89.6 °F 66.7 °F 29.8 in Calm   3 mph 47% 0 in 635 W/m2
16:40 90 °F 67.1 °F 29.8 in Calm   4 mph 47% 0 in 680 W/m2
16:45 90.1 °F 66.6 °F 29.8 in South 0.9 mph 6 mph 46% 0 in 721 W/m2
16:50 90.1 °F 65.8 °F 29.8 in ESE 2.9 mph 5 mph 45% 0 in 652 W/m2
16:55 90.1 °F 65.8 °F 29.8 in South 0.9 mph 3 mph 45% 0 in 548 W/m2
17:00 90.3 °F 66 °F 29.8 in East 2 mph 5 mph 45% 0 in 584 W/m2
17:05 90.9 °F 66.6 °F 29.8 in SE 2 mph 3 mph 45% 0 in 673 W/m2
17:10 90.5 °F 66.2 °F 29.8 in West 2 mph 6 mph 45% 0 in 647 W/m2
17:15 90 °F 65.8 °F 29.8 in NW 2.9 mph 5 mph 45% 0 in 606 W/m2
17:20 89.8 °F 66.2 °F 29.8 in East 2 mph 2 mph 46% 0 in 615 W/m2
17:25 90.1 °F 66.6 °F 29.8 in WNW 2.9 mph 8 mph 46% 0 in 629 W/m2
17:30 90.1 °F 67.1 °F 29.8 in WNW 4 mph 5 mph 47% 0 in 612 W/m2
17:35 90.5 °F 67.5 °F 29.8 in NW 2 mph 8 mph 47% 0 in 589 W/m2
17:40 90.7 °F 68.4 °F 29.8 in WNW 2 mph 3 mph 48% 0 in 570 W/m2
17:45 90.7 °F 67.6 °F 29.8 in North 0.9 mph 3 mph 47% 0 in 461 W/m2
17:50 90.3 °F 68 °F 29.8 in Calm   2 mph 48% 0 in 494 W/m2
17:55 90.3 °F 68 °F 29.8 in NW 0.9 mph 2 mph 48% 0 in 545 W/m2
18:00 90.1 °F 67.8 °F 29.8 in Calm   3 mph 48% 0 in 443 W/m2
18:05 90 °F 67.6 °F 29.8 in East 2.9 mph 3 mph 48% 0 in 265 W/m2
18:10 89.8 °F 67.5 °F 29.8 in SSW 0.9 mph 2 mph 48% 0 in 367 W/m2
18:15 90 °F 68.9 °F 29.8 in Calm   1 mph 50% 0 in 482 W/m2
18:20 90.3 °F 68 °F 29.8 in WNW 2 mph 2 mph 48% 0 in 403 W/m2
18:25 91 °F 69.3 °F 29.8 in West 0.9 mph 2 mph 49% 0 in 404 W/m2
18:30 90.7 °F 67.6 °F 29.8 in Calm   2 mph 47% 0 in 308 W/m2
18:35 90.3 °F 69.1 °F 29.8 in Calm   3 mph 50% 0 in 278 W/m2
18:40 90.1 °F 68.4 °F 29.8 in Calm   1 mph 49% 0 in 216 W/m2
18:45 90.1 °F 68.4 °F 29.8 in ESE 2 mph 2 mph 49% 0 in 195 W/m2
18:50 89.8 °F 68.7 °F 29.8 in East 2 mph 3 mph 50% 0 in 162 W/m2
18:55 89.4 °F 68.9 °F 29.8 in Calm   2 mph 51% 0 in 295 W/m2
19:00 89.4 °F 68.4 °F 29.8 in Calm   1 mph 50% 0 in 302 W/m2
19:05 89.8 °F 68.7 °F 29.8 in ENE 2.9 mph 3 mph 50% 0 in 297 W/m2
19:10 89.6 °F 68.5 °F 29.8 in Calm   2 mph 50% 0 in 278 W/m2
19:15 89.8 °F 69.3 °F 29.8 in SSE 2 mph 7 mph 51% 0 in 221 W/m2
19:20 89.4 °F 67.8 °F 29.8 in Calm   2 mph 49% 0 in 269 W/m2
19:25 89.4 °F 68.9 °F 29.8 in Calm   7 mph 51% 0 in 255 W/m2
19:30 89.6 °F 68.5 °F 29.8 in Calm   1 mph 50% 0 in 243 W/m2
19:35 90 °F 69.4 °F 29.8 in Calm   1 mph 51% 0 in 221 W/m2
19:40 90 °F 68.9 °F 29.8 in Calm     50% 0 in 172 W/m2
19:45 90 °F 69.4 °F 29.8 in Calm     51% 0 in 121 W/m2
19:50 89.4 °F 71.1 °F 29.8 in Calm   2 mph 55% 0 in 76 W/m2
19:55 88.9 °F 71.1 °F 29.8 in WSW 0.9 mph 2 mph 56% 0 in 76 W/m2
20:00 88 °F 71.4 °F 29.8 in Calm   1 mph 58% 0 in 69 W/m2
20:05 87.3 °F 71.2 °F 29.8 in WSW 0.9 mph 1 mph 59% 0 in 63 W/m2
20:10 86.7 °F 70.7 °F 29.8 in Calm   1 mph 59% 0 in 60 W/m2
20:15 86.2 °F 70.2 °F 29.8 in WSW 0.9 mph 2 mph 59% 0 in 84 W/m2
20:20 85.6 °F 69.6 °F 29.8 in WSW 0.9 mph 2 mph 59% 0 in 74 W/m2
20:25 85.1 °F 69.6 °F 29.8 in Calm   2 mph 60% 0 in 63 W/m2
20:30 84.6 °F 69.6 °F 29.8 in WSW 0.9 mph 2 mph 61% 0 in 58 W/m2
20:35 83.8 °F 68.9 °F 29.8 in WSW 0.9 mph 2 mph 61% 0 in 62 W/m2
20:40 83.5 °F 69.1 °F 29.8 in WSW 0.9 mph 2 mph 62% 0 in 60 W/m2
20:45 82.9 °F 68.5 °F 29.8 in WSW 0.9 mph 1 mph 62% 0 in 54 W/m2
20:50 82.6 °F 68.2 °F 29.8 in WSW 0.9 mph 2 mph 62% 0 in 49 W/m2
20:55 82.2 °F 67.8 °F 29.8 in WSW 2 mph 2 mph 62% 0 in 35 W/m2
21:00 82 °F 67.6 °F 29.8 in WSW 2 mph 2 mph 62% 0 in 28 W/m2
21:05 81.7 °F 67.5 °F 29.8 in WSW 2 mph 2 mph 62% 0 in 21 W/m2
21:10 81.3 °F 67.1 °F 29.8 in WSW 0.9 mph 2 mph 62% 0 in 18 W/m2
21:15 81 °F 66.7 °F 29.8 in Calm   2 mph 62% 0 in 14 W/m2
21:20 80.6 °F 66.4 °F 29.8 in Calm     62% 0 in 12 W/m2
21:25 80.4 °F 66.7 °F 29.8 in Calm   1 mph 63% 0 in 9 W/m2
21:30 80.1 °F 65.8 °F 29.8 in WSW 0.9 mph 1 mph 62% 0 in 7 W/m2
21:35 79.7 °F 66.4 °F 29.8 in Calm   1 mph 64% 0 in 5 W/m2
21:41 79.3 °F 66 °F 29.8 in WSW 0.9 mph 2 mph 64% 0 in 0 W/m2
21:46 79 °F 66.2 °F 29.8 in Calm     65% 0 in 0 W/m2
21:51 78.6 °F 65.8 °F 29.8 in Calm   2 mph 65% 0 in 0 W/m2
21:56 78.3 °F 65.5 °F 29.8 in Calm     65% 0 in 0 W/m2
22:01 78.1 °F 65.8 °F 29.8 in Calm     66% 0 in 0 W/m2
22:06 77.7 °F 65.8 °F 29.8 in Calm     67% 0 in 0 W/m2
22:11 77.4 °F 65.5 °F 29.8 in Calm     67% 0 in 0 W/m2
22:16 77.2 °F 65.3 °F 29.8 in Calm     67% 0 in 0 W/m2
22:21 76.8 °F 65.5 °F 29.8 in Calm     68% 0 in 0 W/m2
22:26 76.6 °F 65.3 °F 29.8 in Calm     68% 0 in 0 W/m2
22:31 76.3 °F 65.3 °F 29.8 in Calm     69% 0 in 0 W/m2
22:36 76.1 °F 65.1 °F 29.8 in Calm     69% 0 in 0 W/m2
22:41 75.9 °F 64.9 °F 29.8 in Calm     69% 0 in 0 W/m2
22:46 75.6 °F 65.1 °F 29.9 in Calm   1 mph 70% 0 in 0 W/m2
22:51 75.4 °F 64.9 °F 29.9 in Calm     70% 0 in 0 W/m2
22:56 75.4 °F 65.3 °F 29.9 in Calm   1 mph 71% 0 in 0 W/m2
23:01 75 °F 64.9 °F 29.9 in Calm     71% 0 in 0 W/m2
23:06 74.8 °F 64.8 °F 29.9 in Calm     71% 0 in 0 W/m2
23:11 74.7 °F 65.1 °F 29.9 in Calm     72% 0 in 0 W/m2
23:16 74.7 °F 65.5 °F 29.9 in Calm     73% 0 in 0 W/m2
23:21 74.5 °F 65.3 °F 29.9 in Calm     73% 0 in 0 W/m2
23:26 74.1 °F 64.9 °F 29.9 in Calm     73% 0 in 0 W/m2
23:31 74.1 °F 64.6 °F 29.9 in Calm     72% 0 in 0 W/m2
23:36 73.9 °F 64.4 °F 29.9 in Calm     72% 0 in 0 W/m2
23:41 73.8 °F 64.6 °F 29.9 in Calm     73% 0 in 0 W/m2
23:46 73.6 °F 64.8 °F 29.9 in Calm     74% 0 in 0 W/m2
23:51 73.4 °F 64.6 °F 29.9 in WSW 0.9 mph 1 mph 74% 0 in 0 W/m2
23:56 73.2 °F 64.4 °F 29.9 in Calm     74% 0 in 0 W/m2
Juneau County Weather
Compliments of Weather Underground - 4 mb